createdAt,value
2019-02-05T00:00:38.416Z,8.17
2019-02-05T00:03:08.838Z,6.30
2019-02-05T00:05:37.348Z,7.20
2019-02-05T00:08:05.901Z,7.90
2019-02-05T00:10:34.393Z,8.53
2019-02-05T00:13:02.827Z,7.23
2019-02-05T00:15:31.519Z,8.70
2019-02-05T00:18:00.033Z,9.50
2019-02-05T00:20:28.447Z,8.47
2019-02-05T00:22:56.882Z,7.67
2019-02-05T00:25:25.368Z,6.83
2019-02-05T00:27:53.817Z,10.60
2019-02-05T00:30:22.295Z,7.87
2019-02-05T00:32:50.744Z,10.33
2019-02-05T00:35:19.160Z,7.50
2019-02-05T00:37:47.604Z,7.43
2019-02-05T00:40:17.190Z,7.00
2019-02-05T00:42:45.632Z,9.47
2019-02-05T00:45:18.408Z,7.33
2019-02-05T00:47:46.845Z,7.43
2019-02-05T00:50:16.918Z,7.43
2019-02-05T00:52:45.321Z,6.77
2019-02-05T00:55:15.684Z,7.57
2019-02-05T00:57:44.205Z,6.20
2019-02-05T01:00:27.347Z,8.20
2019-02-05T01:02:55.855Z,10.67
2019-02-05T01:05:24.537Z,8.10
2019-02-05T01:07:53.120Z,8.80
2019-02-05T01:10:22.881Z,7.07
2019-02-05T01:12:51.471Z,10.50
2019-02-05T01:15:23.006Z,7.93
2019-02-05T01:17:51.984Z,7.80
2019-02-05T01:20:21.548Z,7.33
2019-02-05T01:22:50.059Z,9.77
2019-02-05T01:25:19.919Z,7.67
2019-02-05T01:27:48.879Z,8.10
2019-02-05T01:30:22.904Z,7.10
2019-02-05T01:32:51.479Z,13.50
2019-02-05T01:35:20.229Z,8.93
2019-02-05T01:37:48.753Z,10.70
2019-02-05T01:40:19.874Z,8.53
2019-02-05T01:42:48.490Z,11.03
2019-02-05T01:45:18.750Z,9.77
2019-02-05T01:47:47.554Z,9.63
2019-02-05T01:50:18.713Z,10.77
2019-02-05T01:52:47.158Z,11.83
2019-02-05T01:55:15.714Z,10.67
2019-02-05T01:57:44.598Z,14.50
2019-02-05T02:00:21.704Z,9.20
2019-02-05T02:02:50.220Z,10.97
2019-02-05T02:05:18.798Z,17.53
2019-02-05T02:07:47.504Z,10.70
2019-02-05T02:10:19.336Z,12.47
2019-02-05T02:12:47.849Z,12.27
2019-02-05T02:15:16.266Z,11.27
2019-02-05T02:17:44.716Z,16.30
2019-02-05T02:20:16.313Z,14.70
2019-02-05T02:22:44.900Z,12.50
2019-02-05T02:25:14.239Z,14.60
2019-02-05T02:27:43.093Z,15.30
2019-02-05T02:30:24.566Z,14.17
2019-02-05T02:32:53.012Z,13.63
2019-02-05T02:35:21.495Z,14.80
2019-02-05T02:37:50.291Z,15.20
2019-02-05T02:40:18.817Z,11.80
2019-02-05T02:42:47.302Z,12.23
2019-02-05T02:45:16.295Z,14.10
2019-02-05T02:47:44.793Z,12.93
2019-02-05T02:50:17.970Z,13.70
2019-02-05T02:52:46.766Z,11.20
2019-02-05T02:55:15.385Z,13.77
2019-02-05T02:57:44.839Z,14.70
2019-02-05T03:00:20.971Z,14.23
2019-02-05T03:02:50.159Z,12.73
2019-02-05T03:05:20.214Z,14.23
2019-02-05T03:07:49.154Z,13.90
2019-02-05T03:10:20.139Z,17.27
2019-02-05T03:12:48.630Z,16.17
2019-02-05T03:15:17.313Z,12.10
2019-02-05T03:17:45.731Z,15.53
2019-02-05T03:20:15.925Z,15.70
2019-02-05T03:22:45.826Z,14.33
2019-02-05T03:25:17.960Z,17.67
2019-02-05T03:27:46.615Z,16.00
2019-02-05T03:30:17.632Z,15.80
2019-02-05T03:32:46.164Z,19.30
2019-02-05T03:35:15.050Z,16.93
2019-02-05T03:37:43.622Z,16.37
2019-02-05T03:40:21.162Z,17.37
2019-02-05T03:42:49.586Z,17.20
2019-02-05T03:45:18.206Z,16.47
2019-02-05T03:47:46.699Z,17.60
2019-02-05T03:50:15.213Z,18.73
2019-02-05T03:52:46.550Z,18.63
2019-02-05T03:55:41.061Z,20.23
2019-02-05T03:58:15.304Z,20.30
2019-02-05T04:01:07.994Z,19.20
2019-02-05T04:04:02.288Z,18.93
2019-02-05T04:06:42.711Z,20.90
2019-02-05T04:09:17.543Z,19.27
2019-02-05T04:12:08.576Z,19.70
2019-02-05T04:14:55.344Z,22.30
2019-02-05T04:17:38.679Z,19.33
2019-02-05T04:20:22.559Z,18.87
2019-02-05T04:22:54.155Z,23.03
2019-02-05T04:25:25.782Z,19.10
2019-02-05T04:28:03.105Z,21.20
2019-02-05T04:30:37.614Z,21.03
2019-02-05T04:33:21.613Z,19.87
2019-02-05T04:36:01.555Z,19.33
2019-02-05T04:38:35.780Z,22.60
2019-02-05T04:41:13.400Z,24.17
2019-02-05T04:43:56.967Z,24.77
2019-02-05T04:46:48.037Z,22.30
2019-02-05T04:49:43.952Z,23.90
2019-02-05T04:52:15.569Z,24.47
2019-02-05T04:54:52.756Z,22.20
2019-02-05T04:57:57.100Z,26.63
2019-02-05T05:00:44.074Z,23.17
2019-02-05T05:03:24.914Z,23.97
2019-02-05T05:06:02.201Z,22.93
2019-02-05T05:08:39.587Z,24.10
2019-02-05T05:11:08.114Z,24.60
2019-02-05T05:13:36.536Z,26.40
2019-02-05T05:16:05.357Z,23.37
2019-02-05T05:18:33.788Z,24.20
2019-02-05T05:21:02.211Z,24.37
2019-02-05T05:23:30.656Z,25.73
2019-02-05T05:25:59.250Z,25.87
2019-02-05T05:28:27.770Z,25.00
2019-02-05T05:30:56.539Z,25.20
2019-02-05T05:33:25.067Z,23.77
2019-02-05T05:35:53.488Z,23.53
2019-02-05T05:38:21.941Z,25.07
2019-02-05T05:40:50.374Z,26.60
2019-02-05T05:43:18.828Z,28.40
2019-02-05T05:45:47.252Z,25.40
2019-02-05T05:48:15.887Z,31.00
2019-02-05T05:50:44.339Z,28.77
2019-02-05T05:53:12.843Z,26.70
2019-02-05T05:55:41.266Z,24.67
2019-02-05T05:58:21.922Z,22.63
2019-02-05T06:00:39.858Z,28.83
2019-02-05T06:03:08.305Z,24.47
2019-02-05T06:05:36.805Z,26.43
2019-02-05T06:08:05.331Z,28.60
2019-02-05T06:10:33.758Z,26.43
2019-02-05T06:13:02.204Z,29.60
2019-02-05T06:15:30.630Z,28.27
2019-02-05T06:17:59.176Z,29.57
2019-02-05T06:20:27.620Z,25.20
2019-02-05T06:22:56.095Z,28.73
2019-02-05T06:25:24.549Z,26.80
2019-02-05T06:27:53.047Z,26.97
2019-02-05T06:30:21.498Z,29.13
2019-02-05T06:32:49.920Z,32.20
2019-02-05T06:35:18.371Z,28.50
2019-02-05T06:37:46.888Z,29.73
2019-02-05T06:40:18.436Z,26.27
2019-02-05T06:42:46.930Z,29.50
2019-02-05T06:45:16.117Z,29.43
2019-02-05T06:47:44.612Z,32.83
2019-02-05T06:50:14.301Z,27.47
2019-02-05T06:52:42.806Z,29.13
2019-02-05T06:55:13.674Z,27.23
2019-02-05T06:57:42.164Z,25.53
2019-02-05T07:00:16.527Z,25.97
2019-02-05T07:02:45.009Z,27.67
2019-02-05T07:05:13.796Z,26.37
2019-02-05T07:07:42.366Z,29.23
2019-02-05T07:10:17.243Z,24.00
2019-02-05T07:12:45.738Z,29.60
2019-02-05T07:15:14.251Z,29.17
2019-02-05T07:17:49.731Z,26.87
2019-02-05T07:20:15.399Z,28.87
2019-02-05T07:22:44.064Z,26.00
2019-02-05T07:25:15.602Z,22.57
2019-02-05T07:27:44.559Z,23.80
2019-02-05T07:30:19.037Z,22.77
2019-02-05T07:32:47.536Z,26.23
2019-02-05T07:35:16.059Z,21.07
2019-02-05T07:37:44.555Z,20.10
2019-02-05T07:40:15.812Z,22.50
2019-02-05T07:42:44.238Z,19.67
2019-02-05T07:45:18.056Z,20.17
2019-02-05T07:47:46.484Z,21.80
2019-02-05T07:50:24.055Z,21.77
2019-02-05T07:52:52.618Z,19.73
2019-02-05T07:55:21.247Z,17.73
2019-02-05T07:57:49.918Z,19.40
2019-02-05T08:00:29.505Z,24.73
2019-02-05T08:02:58.101Z,19.53
2019-02-05T08:05:31.064Z,20.27
2019-02-05T08:08:00.391Z,17.00
2019-02-05T08:10:29.458Z,16.90
2019-02-05T08:12:57.970Z,16.87
2019-02-05T08:15:28.933Z,16.87
2019-02-05T08:17:57.426Z,18.37
2019-02-05T08:20:25.912Z,15.80
2019-02-05T08:22:54.498Z,17.27
2019-02-05T08:25:22.923Z,17.70
2019-02-05T08:27:51.522Z,16.57
2019-02-05T08:30:29.082Z,21.87
2019-02-05T08:32:57.662Z,15.30
2019-02-05T08:35:26.223Z,15.33
2019-02-05T08:37:54.670Z,15.50
2019-02-05T08:40:24.130Z,17.90
2019-02-05T08:42:52.586Z,15.53
2019-02-05T08:45:24.289Z,20.53
2019-02-05T08:47:52.743Z,14.20
2019-02-05T08:50:23.699Z,18.23
2019-02-05T08:52:52.151Z,17.50
2019-02-05T08:55:21.512Z,16.97
2019-02-05T08:57:51.906Z,17.27
2019-02-05T09:00:22.469Z,19.03
2019-02-05T09:02:51.158Z,16.70
2019-02-05T09:05:19.653Z,17.90
2019-02-05T09:07:48.233Z,17.50
2019-02-05T09:10:22.808Z,15.63
2019-02-05T09:12:51.366Z,18.37
2019-02-05T09:15:29.125Z,19.40
2019-02-05T09:17:50.036Z,14.90
2019-02-05T09:20:20.970Z,16.10
2019-02-05T09:22:49.483Z,13.60
2019-02-05T09:25:19.243Z,17.53
2019-02-05T09:27:47.762Z,19.43
2019-02-05T09:30:25.368Z,19.40
2019-02-05T09:32:56.130Z,19.20
2019-02-05T09:35:24.624Z,21.30
2019-02-05T09:37:53.072Z,16.77
2019-02-05T09:40:27.126Z,23.40
2019-02-05T09:42:55.645Z,22.10
2019-02-05T09:45:24.911Z,19.90
2019-02-05T09:47:53.698Z,19.50
2019-02-05T09:50:22.126Z,18.93
2019-02-05T09:52:50.579Z,16.67
2019-02-05T09:55:20.336Z,18.60
2019-02-05T09:57:48.827Z,17.70
2019-02-05T10:00:20.186Z,17.13
2019-02-05T10:02:48.680Z,19.27
2019-02-05T10:05:20.042Z,19.67
2019-02-05T10:07:48.737Z,20.13
2019-02-05T10:10:19.135Z,20.33
2019-02-05T10:12:47.695Z,20.67
2019-02-05T10:15:21.555Z,16.93
2019-02-05T10:17:50.053Z,25.00
2019-02-05T10:20:19.246Z,23.50
2019-02-05T10:22:49.013Z,22.40
2019-02-05T10:25:17.899Z,22.90
2019-02-05T10:27:46.322Z,22.60
2019-02-05T10:30:26.983Z,19.80
2019-02-05T10:32:55.640Z,20.87
2019-02-05T10:35:24.235Z,19.57
2019-02-05T10:37:52.899Z,20.80
2019-02-05T10:40:22.968Z,22.07
2019-02-05T10:42:51.463Z,27.33
2019-02-05T10:45:24.586Z,21.40
2019-02-05T10:47:53.324Z,19.87
2019-02-05T10:50:22.360Z,19.07
2019-02-05T10:52:50.856Z,22.13
2019-02-05T10:55:20.865Z,19.63
2019-02-05T10:57:51.277Z,20.00
2019-02-05T11:00:25.890Z,20.77
2019-02-05T11:02:54.652Z,16.90
2019-02-05T11:05:25.713Z,18.40
2019-02-05T11:07:54.277Z,23.77
2019-02-05T11:10:22.856Z,23.33
2019-02-05T11:12:51.269Z,18.63
2019-02-05T11:15:24.954Z,21.97
2019-02-05T11:17:53.465Z,18.90
2019-02-05T11:20:23.755Z,22.37
2019-02-05T11:22:52.249Z,20.63
2019-02-05T11:25:20.783Z,19.57
2019-02-05T11:27:49.278Z,25.57
2019-02-05T11:30:25.772Z,21.20
2019-02-05T11:32:54.491Z,22.07
2019-02-05T11:35:23.031Z,20.00
2019-02-05T11:37:52.101Z,23.60
2019-02-05T11:40:23.699Z,22.90
2019-02-05T11:42:52.218Z,22.83
2019-02-05T11:45:21.074Z,20.43
2019-02-05T11:47:50.157Z,17.97
2019-02-05T11:50:18.952Z,23.87
2019-02-05T11:52:47.469Z,19.40
2019-02-05T11:55:24.404Z,22.30
2019-02-05T11:57:52.855Z,22.40
2019-02-05T12:00:32.675Z,22.83
2019-02-05T12:02:56.762Z,22.77
2019-02-05T12:05:25.184Z,22.27
2019-02-05T12:07:54.105Z,18.47
2019-02-05T12:10:22.606Z,19.23
2019-02-05T12:12:51.085Z,20.77
2019-02-05T12:15:19.995Z,19.17
2019-02-05T12:17:48.444Z,19.30
2019-02-05T12:20:18.407Z,20.00
2019-02-05T12:22:48.091Z,18.83
2019-02-05T12:25:26.322Z,20.50
2019-02-05T12:27:54.766Z,20.17
2019-02-05T12:30:44.394Z,19.67
2019-02-05T12:33:05.689Z,17.60
2019-02-05T12:35:34.243Z,16.60
2019-02-05T12:38:03.028Z,14.13
2019-02-05T12:40:31.593Z,19.13
2019-02-05T12:43:00.108Z,16.27
2019-02-05T12:45:33.652Z,15.80
2019-02-05T12:48:02.172Z,16.40
2019-02-05T12:50:38.518Z,15.70
2019-02-05T12:53:07.203Z,17.87
2019-02-05T12:55:35.862Z,15.97
2019-02-05T12:58:05.149Z,19.13
2019-02-05T13:00:36.006Z,17.63
2019-02-05T13:03:05.209Z,15.23
2019-02-05T13:05:33.694Z,15.60
2019-02-05T13:08:05.305Z,16.20
2019-02-05T13:10:35.241Z,16.67
2019-02-05T13:13:04.116Z,15.37
2019-02-05T13:15:32.675Z,14.67
2019-02-05T13:18:01.188Z,18.00
2019-02-05T13:20:31.027Z,14.93
2019-02-05T13:23:00.339Z,15.07
2019-02-05T13:25:30.714Z,17.43
2019-02-05T13:27:59.393Z,18.17
2019-02-05T13:30:32.822Z,16.57
2019-02-05T13:33:01.402Z,14.13
2019-02-05T13:35:30.564Z,15.83
2019-02-05T13:37:59.161Z,14.93
2019-02-05T13:40:28.944Z,16.10
2019-02-05T13:42:57.913Z,14.60
2019-02-05T13:45:31.624Z,17.37
2019-02-05T13:48:00.298Z,15.37
2019-02-05T13:50:33.509Z,17.23
2019-02-05T13:53:01.479Z,15.90
2019-02-05T13:55:33.099Z,16.07
2019-02-05T13:58:01.758Z,16.73
2019-02-05T14:00:32.819Z,19.10
2019-02-05T14:03:01.309Z,19.80
2019-02-05T14:05:29.801Z,18.40
2019-02-05T14:07:58.302Z,17.00
2019-02-05T14:10:29.763Z,18.23
2019-02-05T14:12:58.322Z,16.93
2019-02-05T14:15:29.110Z,16.23
2019-02-05T14:17:58.544Z,20.47
2019-02-05T14:20:27.504Z,18.20
2019-02-05T14:22:56.000Z,19.80
2019-02-05T14:25:24.508Z,15.73
2019-02-05T14:27:53.003Z,17.17
2019-02-05T14:30:28.225Z,18.10
2019-02-05T14:32:56.642Z,17.33
2019-02-05T14:35:25.437Z,20.03
2019-02-05T14:37:54.022Z,16.80
2019-02-05T14:40:25.375Z,18.37
2019-02-05T14:42:54.041Z,18.50
2019-02-05T14:45:22.556Z,18.00
2019-02-05T14:47:51.037Z,17.97
2019-02-05T14:50:31.226Z,21.00
2019-02-05T14:52:59.863Z,19.97
2019-02-05T14:55:28.301Z,18.63
2019-02-05T14:57:56.970Z,18.77
2019-02-05T15:00:34.441Z,17.83
2019-02-05T15:03:05.209Z,18.47
2019-02-05T15:05:33.650Z,20.73
2019-02-05T15:08:02.139Z,16.90
2019-02-05T15:10:30.660Z,20.23
2019-02-05T15:12:59.159Z,23.33
2019-02-05T15:15:29.048Z,20.53
2019-02-05T15:17:57.709Z,17.47
2019-02-05T15:20:40.762Z,20.40
2019-02-05T15:23:09.346Z,21.23
2019-02-05T15:25:37.938Z,18.10
2019-02-05T15:28:06.896Z,19.90
2019-02-05T15:30:43.462Z,17.27
2019-02-05T15:33:27.948Z,20.73
2019-02-05T15:35:58.038Z,17.90
2019-02-05T15:38:26.836Z,21.07
2019-02-05T15:40:55.428Z,17.07
2019-02-05T15:43:23.916Z,18.13
2019-02-05T15:45:52.354Z,17.80
2019-02-05T15:48:20.775Z,18.63
2019-02-05T15:50:49.221Z,19.17
2019-02-05T15:53:17.644Z,19.00
2019-02-05T15:55:46.307Z,21.93
2019-02-05T15:58:14.763Z,22.97
2019-02-05T16:00:43.189Z,16.73
2019-02-05T16:03:11.712Z,23.60
2019-02-05T16:05:40.207Z,21.63
2019-02-05T16:08:08.727Z,21.63
2019-02-05T16:10:37.599Z,23.27
2019-02-05T16:13:06.036Z,20.83
2019-02-05T16:15:34.521Z,19.70
2019-02-05T16:18:03.052Z,20.73
2019-02-05T16:20:31.483Z,23.00
2019-02-05T16:22:59.929Z,18.03
2019-02-05T16:25:28.360Z,20.43
2019-02-05T16:27:57.086Z,23.53
2019-02-05T16:30:30.089Z,19.90
2019-02-05T16:32:58.607Z,19.63
2019-02-05T16:35:27.096Z,23.03
2019-02-05T16:37:56.006Z,21.17
2019-02-05T16:40:35.528Z,20.53
2019-02-05T16:43:04.312Z,21.40
2019-02-05T16:45:32.874Z,23.27
2019-02-05T16:48:01.388Z,24.70
2019-02-05T16:50:32.822Z,21.47
2019-02-05T16:53:01.279Z,19.87
2019-02-05T16:55:30.145Z,21.50
2019-02-05T16:57:58.596Z,20.90
2019-02-05T17:00:31.879Z,24.37
2019-02-05T17:03:00.454Z,19.27
2019-02-05T17:05:31.183Z,24.77
2019-02-05T17:07:59.874Z,22.40
2019-02-05T17:10:28.580Z,24.97
2019-02-05T17:12:57.269Z,22.20
2019-02-05T17:15:25.764Z,27.97
2019-02-05T17:17:54.374Z,25.90
2019-02-05T17:20:28.945Z,26.03
2019-02-05T17:23:00.296Z,26.23
2019-02-05T17:25:28.900Z,25.93
2019-02-05T17:27:59.563Z,27.20
2019-02-05T17:30:33.539Z,25.03
2019-02-05T17:33:01.984Z,29.50
2019-02-05T17:35:30.403Z,24.13
2019-02-05T17:37:58.903Z,24.30
2019-02-05T17:40:27.895Z,26.30
2019-02-05T17:42:56.495Z,25.83
2019-02-05T17:45:28.115Z,20.87
2019-02-05T17:47:56.772Z,24.30
2019-02-05T17:50:25.367Z,23.90
2019-02-05T17:52:53.781Z,30.17
2019-02-05T17:55:22.388Z,24.63
2019-02-05T17:57:51.036Z,30.27
2019-02-05T18:00:32.706Z,23.57
2019-02-05T18:03:01.467Z,27.27
2019-02-05T18:05:30.055Z,28.13
2019-02-05T18:07:58.997Z,24.23
2019-02-05T18:10:28.485Z,24.93
2019-02-05T18:12:57.389Z,22.90
2019-02-05T18:15:37.035Z,23.13
2019-02-05T18:18:06.794Z,28.70
2019-02-05T18:20:35.753Z,24.13
2019-02-05T18:23:04.817Z,26.20
2019-02-05T18:25:33.398Z,23.73
2019-02-05T18:28:02.057Z,24.73
2019-02-05T18:30:38.393Z,27.83
2019-02-05T18:33:07.661Z,30.50
2019-02-05T18:35:36.554Z,27.37
2019-02-05T18:38:16.420Z,30.00
2019-02-05T18:40:45.216Z,29.57
2019-02-05T18:43:14.372Z,32.10
2019-02-05T18:45:43.156Z,27.90
2019-02-05T18:48:12.218Z,29.47
2019-02-05T18:50:40.906Z,31.50
2019-02-05T18:53:11.896Z,30.30
2019-02-05T18:55:43.275Z,26.63
2019-02-05T18:58:12.440Z,28.37
2019-02-05T19:00:43.529Z,30.17
2019-02-05T19:03:16.287Z,26.93
2019-02-05T19:05:43.031Z,28.00
2019-02-05T19:08:12.014Z,29.93
2019-02-05T19:10:41.192Z,26.50
2019-02-05T19:13:09.966Z,28.87
2019-02-05T19:15:40.086Z,27.30
2019-02-05T19:18:09.746Z,28.20
2019-02-05T19:20:38.775Z,27.83
2019-02-05T19:23:09.351Z,31.23
2019-02-05T19:25:45.589Z,25.07
2019-02-05T19:28:15.997Z,28.03
2019-02-05T19:30:46.687Z,27.20
2019-02-05T19:33:26.376Z,27.33
2019-02-05T19:35:46.516Z,27.73
2019-02-05T19:38:15.861Z,28.90
2019-02-05T19:40:44.399Z,28.53
2019-02-05T19:43:13.192Z,29.13
2019-02-05T19:45:53.068Z,29.00
2019-02-05T19:48:29.854Z,31.10
2019-02-05T19:50:59.225Z,28.23
2019-02-05T19:53:28.411Z,29.20
2019-02-05T19:55:57.937Z,30.03
2019-02-05T19:58:26.845Z,32.93
2019-02-05T20:00:56.102Z,28.80
2019-02-05T20:03:25.288Z,30.93
2019-02-05T20:05:54.300Z,32.00
2019-02-05T20:08:23.511Z,31.30
2019-02-05T20:10:52.670Z,35.70
2019-02-05T20:13:21.594Z,32.10
2019-02-05T20:15:51.354Z,29.60
2019-02-05T20:18:20.755Z,30.53
2019-02-05T20:20:50.041Z,27.73
2019-02-05T20:23:19.063Z,34.50
2019-02-05T20:25:48.079Z,32.20
2019-02-05T20:28:17.522Z,30.10
2019-02-05T20:30:46.423Z,33.27
2019-02-05T20:33:15.823Z,34.07
2019-02-05T20:35:45.024Z,33.97
2019-02-05T20:38:14.065Z,41.97
2019-02-05T20:40:42.976Z,37.23
2019-02-05T20:43:11.765Z,36.17
2019-02-05T20:45:40.830Z,33.40
2019-02-05T20:48:10.171Z,28.30
2019-02-05T20:50:39.702Z,29.93
2019-02-05T20:53:13.909Z,34.20
2019-02-05T20:55:40.284Z,27.23
2019-02-05T20:58:09.633Z,36.90
2019-02-05T21:00:38.691Z,31.60
2019-02-05T21:03:07.729Z,33.03
2019-02-05T21:05:36.472Z,45.57
2019-02-05T21:08:05.464Z,34.67
2019-02-05T21:10:34.338Z,29.03
2019-02-05T21:13:02.934Z,25.93
2019-02-05T21:15:31.594Z,33.97
2019-02-05T21:18:00.402Z,33.93
2019-02-05T21:20:34.047Z,34.60
2019-02-05T21:23:03.026Z,29.63
2019-02-05T21:25:31.581Z,35.53
2019-02-05T21:28:00.063Z,28.57
2019-02-05T21:30:28.587Z,31.10
2019-02-05T21:32:57.144Z,33.43
2019-02-05T21:35:25.765Z,28.93
2019-02-05T21:37:54.260Z,32.80
2019-02-05T21:40:26.799Z,32.83
2019-02-05T21:42:55.453Z,28.97
2019-02-05T21:45:32.561Z,32.30
2019-02-05T21:48:01.059Z,30.77
2019-02-05T21:50:29.555Z,29.53
2019-02-05T21:52:58.484Z,35.13
2019-02-05T21:55:27.760Z,32.10
2019-02-05T21:57:56.549Z,32.47
2019-02-05T22:00:30.168Z,36.87
2019-02-05T22:02:58.943Z,37.30
2019-02-05T22:05:29.214Z,33.57
2019-02-05T22:07:57.712Z,33.50
2019-02-05T22:10:26.342Z,31.80
2019-02-05T22:12:54.864Z,33.70
2019-02-05T22:15:23.660Z,29.57
2019-02-05T22:17:52.152Z,32.43
2019-02-05T22:20:26.239Z,34.33
2019-02-05T22:22:56.231Z,36.13
2019-02-05T22:25:29.949Z,31.43
2019-02-05T22:27:58.435Z,34.17
2019-02-05T22:30:29.491Z,36.97
2019-02-05T22:32:58.083Z,29.27
2019-02-05T22:35:26.694Z,35.17
2019-02-05T22:37:55.569Z,34.63
2019-02-05T22:40:25.753Z,41.50
2019-02-05T22:42:54.320Z,33.77
2019-02-05T22:45:28.423Z,35.00
2019-02-05T22:47:56.917Z,35.97
2019-02-05T22:50:28.058Z,38.23
2019-02-05T22:52:56.628Z,33.57
2019-02-05T22:55:25.160Z,36.50
2019-02-05T22:57:53.645Z,42.17
2019-02-05T23:00:48.564Z,41.97
2019-02-05T23:03:19.392Z,39.47
2019-02-05T23:06:22.993Z,42.03
2019-02-05T23:08:52.260Z,37.17
2019-02-05T23:11:40.628Z,39.37
2019-02-05T23:14:09.121Z,37.43
2019-02-05T23:16:37.638Z,37.90
2019-02-05T23:19:06.369Z,42.97
2019-02-05T23:21:34.819Z,40.53
2019-02-05T23:24:03.484Z,46.17
2019-02-05T23:26:31.934Z,40.73
2019-02-05T23:29:00.351Z,43.73
2019-02-05T23:31:28.804Z,46.23
2019-02-05T23:33:57.229Z,40.97
2019-02-05T23:36:25.685Z,44.80
2019-02-05T23:38:54.385Z,40.40
2019-02-05T23:41:22.837Z,47.00
2019-02-05T23:43:51.284Z,36.77
2019-02-05T23:46:19.696Z,50.50
2019-02-05T23:48:48.121Z,43.27
2019-02-05T23:51:16.655Z,42.20
2019-02-05T23:53:45.078Z,39.67
2019-02-05T23:56:25.255Z,39.83
2019-02-05T23:58:43.870Z,40.53
